首页
METAR-TAF:

METAR-TAF

机场 :

扎達爾, 克罗地亚

纬度: 44-06N, 经度: 015-21E, 海拔: 82米

当前天气观测

该预报发布于30分钟前的15:00 UTC
风速5节,风向多变
温度 24°C
湿度 61%
气压 1010 hPa
能见度10公里或以上
少量云层高于3000英尺

METAR: LDZD 231500Z VRB05KT 9999 FEW030 24/16 Q1010 NOSIG

时间: 17:30 (15:30 UTC)

预报

该预报发布于4小时和5分钟前的11:25 UTC
预报有效从23日的 12点(UTC)到 24日的 12点(UTC)
风速8节,风向
能见度10公里或以上
少量云层高于2000英尺
散云层高于3000英尺
几率 40% :
短暂存在
从 23日的 12点(UTC)到 24日的 12点(UTC)
能見度: 4000
少量云层高于2000英尺, 积雨云.
多云层高于3000英尺
雷暴, 雨
成为
从 23日的 16点(UTC)到 23日的 18点(UTC)
风速2节,风向多变
成为
从 24日的 04点(UTC)到 24日的 06点(UTC)
风速8节,风向东转东南
成为
从 24日的 10点(UTC)到 24日的 12点(UTC)
风速8节,风向西

TAF: LDZD 231125Z 2312/2412 18008KT 9999 FEW020 SCT030 TX24/2313Z TN16/2403Z PROB40 TEMPO 2312/2412 4000 TSRA FEW020CB BKN030 BECMG 2316/2318 VRB02KT BECMG 2404/2406 12008KT BECMG 2410/2412 26008KT

超过4000个机场的气象观测和天气预报(METAR&TAF报告)。

可查询的气象台以黄色和红色小点在地图上表示。

将鼠标移到小点上方,可查看气象台名称。

然后点击查看天气观测和预报。

如需切换地图:点击带黑十字的绿色按钮放大地图;点击带横线的绿色按钮缩小地图;或者点击绿色箭头查看邻近地区的地图。


METAR-TAF: